Containerships 6 — DABH — position and weather

sailwx.info

Track history (hours):
 
Tides and Currents Weather Stations Pressure Air Temp Water Temp Dewpoint Dewpoint Depression Visibility Wind Speed Wind Dir Waves Ship Positions

Containerships 6

Last reported at 2018-Apr-20 20:00 UTC. Time now 2018-Apr-20 20:24 UTC.
Position N 57°49' E 010°47'.

Length 155 m; beam 21.8 m; draft 8.9 m.

Type: Ship (hazmat cat A). MMSI: 211315096.

Date/timePositionNaut miles runAvg speedWind from/ knotsBaromVisibWave heightAir tempDewpointWater temp
2018-Apr-20 20:00N 57°49' E 010°47'816.8
2018-Apr-20 19:31N 57°43' E 010°58'917.9
2018-Apr-20 19:00N 57°37' E 011°10'918.3
2018-Apr-20 18:30N 57°31' E 011°23'918.5
2018-Apr-20 18:00N 57°23' E 011°31'918.9
2018-Apr-20 17:30N 57°14' E 011°37'1018.9
2018-Apr-20 17:00N 57°05' E 011°43'1018.7
2018-Apr-20 16:29N 56°56' E 011°49'1517.4
2018-Apr-20 15:39N 56°41' E 011°51'318.9
2018-Apr-20 15:30N 56°39' E 011°48'5318.6
2018-Apr-20 12:39N 55°54' E 010°56'318.4
2018-Apr-20 12:30N 55°52' E 010°53'917.9
2018-Apr-20 12:00N 55°44' E 010°48'2318.0
2018-Apr-20 10:42N 55°22' E 011°02'416.6
2018-Apr-20 10:29N 55°18' E 011°03'816.3
2018-Apr-20 10:00N 55°10' E 011°04'918.8
2018-Apr-20 09:30N 55°01' E 011°02'918.2
2018-Apr-20 09:00N 54°53' E 010°54'918.0
2018-Apr-20 08:30N 54°44' E 010°53'815.7
2018-Apr-20 08:01N 54°39' E 011°03'918.2
2018-Apr-20 07:31N 54°34' E 011°17'918.9
2018-Apr-20 07:00N 54°31' E 011°31'918.6
2018-Apr-20 06:30N 54°27' E 011°46'918.3
2018-Apr-20 06:00N 54°26' E 012°02'815.3
2018-Apr-20 05:30N 54°31' E 012°13'917.4
2018-Apr-20 05:00N 54°38' E 012°20'1018.3
2018-Apr-20 04:27N 54°44' E 012°35'818.3
2018-Apr-20 04:00N 54°47' E 012°48'1018.5
2018-Apr-20 03:28N 54°47' E 013°05'918.6
2018-Apr-20 02:59N 54°47' E 013°21'918.7
2018-Apr-20 02:30N 54°46' E 013°36'1018.6
2018-Apr-20 01:57N 54°43' E 013°53'818.1
2018-Apr-20 01:30N 54°41' E 014°07'918.6
2018-Apr-20 01:00N 54°38' E 014°22'918.4
2018-Apr-20 00:31N 54°38' E 014°37'1018.7
2018-Apr-19 23:57N 54°40' E 014°55'818.7
2018-Apr-19 23:30N 54°42' E 015°09'918.7
2018-Apr-19 23:00N 54°43' E 015°26'918.7
2018-Apr-19 22:30N 54°44' E 015°42'1018.6
2018-Apr-19 21:58N 54°46' E 015°59'2818.6
2018-Apr-19 20:26N 54°51' E 016°47'1018.5
2018-Apr-19 19:54N 54°53' E 017°04'718.5
2018-Apr-19 19:30N 54°54' E 017°16'918.4
2018-Apr-19 19:00N 54°55' E 017°32'1018.4
2018-Apr-19 18:29N 54°55' E 017°49'918.4
2018-Apr-19 18:01N 54°55' E 018°04'918.3
2018-Apr-19 17:30N 54°56' E 018°20'917.5
2018-Apr-19 17:00N 54°53' E 018°35'918.4
2018-Apr-19 16:30N 54°47' E 018°47'918.4
2018-Apr-19 16:00N 54°41' E 018°58'918.0
2018-Apr-19 15:30N 54°33' E 018°50'917.0
2018-Apr-19 15:00N 54°32' E 018°36'3 6.4
2018-Apr-19 14:30N 54°33' E 018°30'0 0.0
2018-Apr-19 13:58N 54°33' E 018°30'0 0.1
2018-Apr-19 13:28N 54°33' E 018°30'0 0.0
2018-Apr-19 12:58N 54°33' E 018°30'0 0.0
2018-Apr-19 12:28N 54°33' E 018°30'0 0.0
2018-Apr-19 11:58N 54°33' E 018°30'0 0.0
2018-Apr-19 11:28N 54°33' E 018°30'0 0.0
2018-Apr-19 10:58N 54°33' E 018°30'0 0.0
2018-Apr-19 10:28N 54°33' E 018°30'0 0.0
2018-Apr-19 09:58N 54°33' E 018°30'0 0.0
2018-Apr-19 09:31N 54°33' E 018°30'0 0.0
2018-Apr-19 09:01N 54°33' E 018°30'0 0.0
2018-Apr-19 08:31N 54°33' E 018°30'0 0.3
2018-Apr-19 08:00N 54°33' E 018°31'3 5.2
2018-Apr-19 07:30N 54°32' E 018°35'510.8
2018-Apr-19 07:00N 54°32' E 018°44'612.1
2018-Apr-19 06:30N 54°36' E 018°53'714.1
2018-Apr-19 06:00N 54°42' E 018°58'917.5
2018-Apr-19 05:30N 54°50' E 019°04'1018.9
2018-Apr-19 05:00N 54°59' E 019°10'918.8
2018-Apr-19 04:30N 55°08' E 019°16'918.8
2018-Apr-19 04:00N 55°17' E 019°22'251 6.6
2018-Apr-17 14:13N 59°14' E 021°53'419.0
2018-Apr-17 14:01N 59°17' E 021°60'1919.1
2018-Apr-17 13:00N 59°28' E 022°29'1618.9
2018-Apr-17 12:10N 59°34' E 022°59'319.2
2018-Apr-17 12:01N 59°35' E 023°04'1019.1
2018-Apr-17 11:31N 59°38' E 023°22'1019.3
2018-Apr-17 11:00N 59°40' E 023°41'1019.1
2018-Apr-17 10:31N 59°43' E 023°59'1019.3
2018-Apr-17 09:59N 59°46' E 024°18'919.0
2018-Apr-17 09:31N 59°49' E 024°35'919.0
2018-Apr-17 09:01N 59°54' E 024°51'918.5
2018-Apr-17 08:30N 59°60' E 025°05'1019.0
2018-Apr-17 08:01N 60°09' E 025°12'4 7.9
2018-Apr-17 07:30N 60°13' E 025°12'0 0.0
2018-Apr-17 06:55N 60°13' E 025°12'0 0.0
2018-Apr-17 06:30N 60°13' E 025°12'0 0.0
2018-Apr-17 05:59N 60°13' E 025°12'0 0.0
2018-Apr-17 05:30N 60°13' E 025°12'0 0.0
2018-Apr-17 05:00N 60°13' E 025°12'0 0.0
2018-Apr-17 04:30N 60°13' E 025°12'0 0.0
2018-Apr-17 04:00N 60°13' E 025°12'0 0.0
2018-Apr-17 03:30N 60°13' E 025°12'0 0.0
2018-Apr-17 03:00N 60°13' E 025°12'0 0.0
2018-Apr-17 02:30N 60°13' E 025°12'0 0.0
2018-Apr-17 02:00N 60°13' E 025°12'0 0.0
2018-Apr-17 01:26N 60°13' E 025°12'0 0.0
2018-Apr-17 01:00N 60°13' E 025°12'0 0.0
2018-Apr-17 00:29N 60°13' E 025°12'0 0.0
2018-Apr-17 00:00N 60°13' E 025°12'0 0.0
2018-Apr-16 23:30N 60°13' E 025°12'0 0.0
2018-Apr-16 23:00N 60°13' E 025°12'0 0.0
2018-Apr-16 22:30N 60°13' E 025°12'0 0.0
2018-Apr-16 22:00N 60°13' E 025°12'0 0.0
2018-Apr-16 21:30N 60°13' E 025°11'0 0.0
2018-Apr-16 21:00N 60°13' E 025°12'0 0.0
2018-Apr-16 20:30N 60°13' E 025°12'2 3.2
2018-Apr-16 20:00N 60°11' E 025°13'815.2
2018-Apr-16 19:30N 60°04' E 025°09'918.8
2018-Apr-16 19:00N 59°56' E 025°01'918.7
2018-Apr-16 18:31N 59°48' E 024°50'1019.0
2018-Apr-16 18:00N 59°45' E 024°33'1019.0
2018-Apr-16 17:30N 59°42' E 024°15'918.8
2018-Apr-16 17:00N 59°39' E 023°57'1019.0
2018-Apr-16 16:30N 59°36' E 023°39'1019.2
2018-Apr-16 16:00N 59°33' E 023°21'1219.2
2018-Apr-16 15:24N 59°30' E 022°59'26618.6
2018-Apr-16 01:05N 56°16' E 017°15'218.8
2018-Apr-16 00:58N 56°14' E 017°12'918.7
2018-Apr-16 00:30N 56°09' E 016°60'918.8
2018-Apr-16 00:00N 56°04' E 016°46'1018.8
2018-Apr-15 23:29N 55°59' E 016°30'918.7
2018-Apr-15 23:00N 55°54' E 016°17'918.8
2018-Apr-15 22:30N 55°50' E 016°03'918.8
2018-Apr-15 22:00N 55°45' E 015°48'918.9
2018-Apr-15 21:31N 55°41' E 015°33'918.9
2018-Apr-15 21:00N 55°36' E 015°18'918.9
2018-Apr-15 20:30N 55°32' E 015°04'918.9
2018-Apr-15 20:00N 55°27' E 014°49'918.4
2018-Apr-15 19:31N 55°22' E 014°36'1018.6
2018-Apr-15 18:57N 55°13' E 014°25'818.8
2018-Apr-15 18:30N 55°07' E 014°16'918.3
2018-Apr-15 18:01N 55°01' E 014°04'1219.1
2018-Apr-15 17:22N 54°57' E 013°44'1019.1
2018-Apr-15 16:50N 54°53' E 013°27'1318.6
2018-Apr-15 16:08N 54°49' E 013°05'418.5
2018-Apr-15 15:55N 54°48' E 012°59'918.3
2018-Apr-15 15:26N 54°45' E 012°45'818.2
2018-Apr-15 15:00N 54°41' E 012°33'1417.2
2018-Apr-15 14:13N 54°31' E 012°16'418.6
2018-Apr-15 14:00N 54°27' E 012°14'2516.9
2018-Apr-15 12:31N 54°29' E 011°31'018.8
2018-Apr-15 12:30N 54°29' E 011°30'918.6
2018-Apr-15 12:00N 54°33' E 011°16'917.6
2018-Apr-15 11:31N 54°35' E 011°02'918.4
2018-Apr-15 11:00N 54°34' E 010°46'918.3
2018-Apr-15 10:30N 54°32' E 010°31'916.3
2018-Apr-15 09:59N 54°29' E 010°17'11 5.6
2018-Apr-15 08:02N 54°22' E 010°03'3 6.8
2018-Apr-15 07:38N 54°21' E 009°58'3 8.2
2018-Apr-15 07:18N 54°21' E 009°54'2 8.4
2018-Apr-15 07:00N 54°22' E 009°50'4 7.1
2018-Apr-15 06:30N 54°20' E 009°44'3 6.6
2018-Apr-15 06:00N 54°18' E 009°41'3 5.8
2018-Apr-15 05:30N 54°15' E 009°37'3 6.8
2018-Apr-15 05:00N 54°12' E 009°34'4 8.2
2018-Apr-15 04:30N 54°11' E 009°28'4 8.0
2018-Apr-15 04:00N 54°09' E 009°22'2 3.2
2018-Apr-15 03:30N 54°08' E 009°20'4 8.2
2018-Apr-15 03:00N 54°04' E 009°19'1 2.8
2018-Apr-15 02:30N 54°02' E 009°18'4 7.5
2018-Apr-15 01:58N 53°59' E 009°16'3 6.6
2018-Apr-15 01:29N 53°56' E 009°13'3 7.0
2018-Apr-15 01:00N 53°54' E 009°09'0 0.0
2018-Apr-15 00:31N 53°54' E 009°09'2 3.7
2018-Apr-15 00:00N 53°53' E 009°06'0 0.2
2018-Apr-14 23:31N 53°53' E 009°06'0 0.1
2018-Apr-14 23:00N 53°53' E 009°06'1 2.6
2018-Apr-14 22:31N 53°52' E 009°04'714.2
2018-Apr-14 22:00N 53°50' E 008°53'713.4
2018-Apr-14 21:30N 53°53' E 008°42'918.2
2018-Apr-14 21:00N 53°58' E 008°29'1019.7
2018-Apr-14 20:30N 53°59' E 008°13'917.8
2018-Apr-14 20:00N 53°58' E 007°58'1020.1
2018-Apr-14 19:30N 53°56' E 007°41'5119.8
2018-Apr-14 16:55N 53°44' E 006°17'2319.2
2018-Apr-14 15:44N 53°37' E 005°41'819.1
2018-Apr-14 15:21N 53°35' E 005°29'619.0
2018-Apr-14 15:00N 53°33' E 005°18'918.7
2018-Apr-14 14:31N 53°29' E 005°04'918.7
2018-Apr-14 14:00N 53°25' E 004°49'917.9
2018-Apr-14 13:29N 53°19' E 004°38'918.6
2018-Apr-14 13:00N 53°11' E 004°32'918.5
2018-Apr-14 12:30N 53°03' E 004°25'918.2
2018-Apr-14 12:00N 52°54' E 004°18'1018.2
2018-Apr-14 11:28N 52°46' E 004°10'918.0
2018-Apr-14 10:59N 52°39' E 004°02'917.8
2018-Apr-14 10:30N 52°31' E 003°55'1017.9
2018-Apr-14 09:56N 52°21' E 003°53'817.6
2018-Apr-14 09:30N 52°14' E 003°53'917.6
2018-Apr-14 09:01N 52°05' E 003°56'917.6
2018-Apr-14 08:30N 51°59' E 004°06'612.2
2018-Apr-14 08:01N 51°55' E 004°14'5 9.9
2018-Apr-14 07:30N 51°54' E 004°22'2 4.5
2018-Apr-14 07:00N 51°53' E 004°25'0 0.0
2018-Apr-14 06:30N 51°53' E 004°25'0 0.0
2018-Apr-14 06:00N 51°53' E 004°25'0 0.0
2018-Apr-14 05:30N 51°53' E 004°25'0 0.0
2018-Apr-14 05:00N 51°53' E 004°25'0 0.0
2018-Apr-14 04:30N 51°53' E 004°25'0 0.0
2018-Apr-14 04:00N 51°53' E 004°25'0 0.0
2018-Apr-14 03:30N 51°53' E 004°25'0 0.0
2018-Apr-14 03:00N 51°53' E 004°25'0 0.0
2018-Apr-14 02:30N 51°53' E 004°25'0 0.0
2018-Apr-14 02:00N 51°53' E 004°25'0 0.0
2018-Apr-14 01:30N 51°53' E 004°25'0 0.0
2018-Apr-14 01:00N 51°53' E 004°25'0 0.0
2018-Apr-14 00:30N 51°53' E 004°25'0 0.0
2018-Apr-14 00:00N 51°53' E 004°25'0 0.0
2018-Apr-13 23:30N 51°53' E 004°25'0 0.0
2018-Apr-13 23:00N 51°53' E 004°25'0 0.0
2018-Apr-13 22:30N 51°53' E 004°25'0 0.0
2018-Apr-13 22:00N 51°53' E 004°25'0 0.0
2018-Apr-13 21:30N 51°53' E 004°25'0 0.0
2018-Apr-13 21:00N 51°53' E 004°25'0 0.0
2018-Apr-13 20:30N 51°53' E 004°25'0 0.0
2018-Apr-13 20:00N 51°53' E 004°25'0 0.0
2018-Apr-13 19:30N 51°53' E 004°25'0 0.0
2018-Apr-13 19:00N 51°53' E 004°25'0 0.0
2018-Apr-13 18:30N 51°53' E 004°25'0 0.0
2018-Apr-13 18:00N 51°53' E 004°25'0 0.0
2018-Apr-13 17:30N 51°53' E 004°25'0 0.0
2018-Apr-13 17:00N 51°53' E 004°25'0 0.0
2018-Apr-13 16:30N 51°53' E 004°25'0 0.0
2018-Apr-13 16:00N 51°53' E 004°25'0 0.0
2018-Apr-13 15:30N 51°53' E 004°25'0 0.0
2018-Apr-13 15:00N 51°53' E 004°25'0 0.0
2018-Apr-13 14:30N 51°53' E 004°25'0 0.0
2018-Apr-13 14:00N 51°53' E 004°25'0 0.0
2018-Apr-13 13:30N 51°53' E 004°25'0 0.0
2018-Apr-13 13:00N 51°53' E 004°25'1 1.4
2018-Apr-13 12:30N 51°53' E 004°24'4 7.4
2018-Apr-13 12:00N 51°54' E 004°18'510.4
2018-Apr-13 11:30N 51°57' E 004°11'612.2
2018-Apr-13 11:00N 51°59' E 004°03'1817.7
2018-Apr-13 10:00N 52°05' E 003°35'6219.1
2018-Apr-13 06:45N 52°40' E 002°11'520.4
2018-Apr-13 06:31N 52°43' E 002°04'1121.1
2018-Apr-13 06:00N 52°49' E 001°50'1121.2
2018-Apr-13 05:30N 52°56' E 001°36'1020.9
2018-Apr-13 05:00N 53°04' E 001°25'1020.4
2018-Apr-13 04:30N 53°12' E 001°16'5519.9
2018-Apr-13 01:43N 53°57' E 000°22'419.6
2018-Apr-13 01:30N 54°00' E 000°17'1019.6
2018-Apr-13 01:00N 54°08' E 000°06'1019.8
2018-Apr-13 00:30N 54°15' W 000°05'1019.3
2018-Apr-13 00:01N 54°22' W 000°16'1019.1
2018-Apr-12 23:31N 54°30' W 000°27'25 1.8
2018-Apr-12 09:13N 54°41' W 001°06'419.2
2018-Apr-12 09:00N 54°44' W 000°59'1019.4
2018-Apr-12 08:30N 54°49' W 000°45'1419.5
2018-Apr-12 07:49N 54°54' W 000°24'40118.7
2018-Apr-11 10:23N 57°46' E 010°29'719.6
2018-Apr-11 10:00N 57°47' E 010°43'918.3
2018-Apr-11 09:30N 57°43' E 010°57'1019.3
2018-Apr-11 09:00N 57°36' E 011°11'1019.2
2018-Apr-11 08:30N 57°30' E 011°23'918.8
2018-Apr-11 08:00N 57°21' E 011°32'1019.4
2018-Apr-11 07:30N 57°12' E 011°38'1019.2
2018-Apr-11 06:59N 57°03' E 011°44'918.9
2018-Apr-11 06:30N 56°54' E 011°49'918.7
2018-Apr-11 06:00N 56°45' E 011°53'918.4
2018-Apr-11 05:30N 56°37' E 011°45'917.8
2018-Apr-11 04:59N 56°29' E 011°36'1417.7
2018-Apr-11 04:12N 56°17' E 011°24'517.8
2018-Apr-11 03:56N 56°12' E 011°20'5317.0
2018-Apr-11 00:50N 55°21' E 011°03'717.4
2018-Apr-11 00:24N 55°14' E 011°06'717.4
2018-Apr-11 00:00N 55°07' E 011°03'917.0
2018-Apr-10 23:30N 54°59' E 011°00'816.4
2018-Apr-10 23:00N 54°52' E 010°53'917.1
2018-Apr-10 22:30N 54°43' E 010°53'816.9
2018-Apr-10 22:00N 54°38' E 011°05'1019.4
2018-Apr-10 21:30N 54°34' E 011°20'1020.2
2018-Apr-10 21:00N 54°29' E 011°35'1019.2
2018-Apr-10 20:30N 54°26' E 011°51'918.9
2018-Apr-10 20:00N 54°26' E 012°07'  
Track history (hours):
 
Tides and Currents Weather Stations Pressure Air Temp Water Temp Dewpoint Dewpoint Depression Visibility Wind Speed Wind Dir Waves Ship Positions

Containerships 6

Last reported at 2018-Apr-20 20:00 UTC. Time now 2018-Apr-20 20:24 UTC.
Position N 57°49' E 010°47'.

Length 155 m; beam 21.8 m; draft 8.9 m.

Type: Ship (hazmat cat A). MMSI: 211315096.

Date/timePositionNaut miles runAvg speedWind from/ knotsBaromVisibWave heightAir tempDewpointWater temp
2018-Apr-20 20:00N 57°49' E 010°47'816.8
2018-Apr-20 19:31N 57°43' E 010°58'917.9
2018-Apr-20 19:00N 57°37' E 011°10'918.3
2018-Apr-20 18:30N 57°31' E 011°23'918.5
2018-Apr-20 18:00N 57°23' E 011°31'918.9
2018-Apr-20 17:30N 57°14' E 011°37'1018.9
2018-Apr-20 17:00N 57°05' E 011°43'1018.7
2018-Apr-20 16:29N 56°56' E 011°49'1517.4
2018-Apr-20 15:39N 56°41' E 011°51'318.9
2018-Apr-20 15:30N 56°39' E 011°48'5318.6
2018-Apr-20 12:39N 55°54' E 010°56'318.4
2018-Apr-20 12:30N 55°52' E 010°53'917.9
2018-Apr-20 12:00N 55°44' E 010°48'2318.0
2018-Apr-20 10:42N 55°22' E 011°02'416.6
2018-Apr-20 10:29N 55°18' E 011°03'816.3
2018-Apr-20 10:00N 55°10' E 011°04'918.8
2018-Apr-20 09:30N 55°01' E 011°02'918.2
2018-Apr-20 09:00N 54°53' E 010°54'918.0
2018-Apr-20 08:30N 54°44' E 010°53'815.7
2018-Apr-20 08:01N 54°39' E 011°03'918.2
2018-Apr-20 07:31N 54°34' E 011°17'918.9
2018-Apr-20 07:00N 54°31' E 011°31'918.6
2018-Apr-20 06:30N 54°27' E 011°46'918.3
2018-Apr-20 06:00N 54°26' E 012°02'815.3
2018-Apr-20 05:30N 54°31' E 012°13'917.4
2018-Apr-20 05:00N 54°38' E 012°20'1018.3
2018-Apr-20 04:27N 54°44' E 012°35'818.3
2018-Apr-20 04:00N 54°47' E 012°48'1018.5
2018-Apr-20 03:28N 54°47' E 013°05'918.6
2018-Apr-20 02:59N 54°47' E 013°21'918.7
2018-Apr-20 02:30N 54°46' E 013°36'1018.6
2018-Apr-20 01:57N 54°43' E 013°53'818.1
2018-Apr-20 01:30N 54°41' E 014°07'918.6
2018-Apr-20 01:00N 54°38' E 014°22'918.4
2018-Apr-20 00:31N 54°38' E 014°37'1018.7
2018-Apr-19 23:57N 54°40' E 014°55'818.7
2018-Apr-19 23:30N 54°42' E 015°09'918.7
2018-Apr-19 23:00N 54°43' E 015°26'918.7
2018-Apr-19 22:30N 54°44' E 015°42'1018.6
2018-Apr-19 21:58N 54°46' E 015°59'2818.6
2018-Apr-19 20:26N 54°51' E 016°47'1018.5
2018-Apr-19 19:54N 54°53' E 017°04'718.5
2018-Apr-19 19:30N 54°54' E 017°16'918.4
2018-Apr-19 19:00N 54°55' E 017°32'1018.4
2018-Apr-19 18:29N 54°55' E 017°49'918.4
2018-Apr-19 18:01N 54°55' E 018°04'918.3
2018-Apr-19 17:30N 54°56' E 018°20'917.5
2018-Apr-19 17:00N 54°53' E 018°35'918.4
2018-Apr-19 16:30N 54°47' E 018°47'918.4
2018-Apr-19 16:00N 54°41' E 018°58'918.0
2018-Apr-19 15:30N 54°33' E 018°50'917.0
2018-Apr-19 15:00N 54°32' E 018°36'3 6.4
2018-Apr-19 14:30N 54°33' E 018°30'0 0.0
2018-Apr-19 13:58N 54°33' E 018°30'0 0.1
2018-Apr-19 13:28N 54°33' E 018°30'0 0.0
2018-Apr-19 12:58N 54°33' E 018°30'0 0.0
2018-Apr-19 12:28N 54°33' E 018°30'0 0.0
2018-Apr-19 11:58N 54°33' E 018°30'0 0.0
2018-Apr-19 11:28N 54°33' E 018°30'0 0.0
2018-Apr-19 10:58N 54°33' E 018°30'0 0.0
2018-Apr-19 10:28N 54°33' E 018°30'0 0.0
2018-Apr-19 09:58N 54°33' E 018°30'0 0.0
2018-Apr-19 09:31N 54°33' E 018°30'0 0.0
2018-Apr-19 09:01N 54°33' E 018°30'0 0.0
2018-Apr-19 08:31N 54°33' E 018°30'0 0.3
2018-Apr-19 08:00N 54°33' E 018°31'3 5.2
2018-Apr-19 07:30N 54°32' E 018°35'510.8
2018-Apr-19 07:00N 54°32' E 018°44'612.1
2018-Apr-19 06:30N 54°36' E 018°53'714.1
2018-Apr-19 06:00N 54°42' E 018°58'917.5
2018-Apr-19 05:30N 54°50' E 019°04'1018.9
2018-Apr-19 05:00N 54°59' E 019°10'918.8
2018-Apr-19 04:30N 55°08' E 019°16'918.8
2018-Apr-19 04:00N 55°17' E 019°22'251 6.6
2018-Apr-17 14:13N 59°14' E 021°53'419.0
2018-Apr-17 14:01N 59°17' E 021°60'1919.1
2018-Apr-17 13:00N 59°28' E 022°29'1618.9
2018-Apr-17 12:10N 59°34' E 022°59'319.2
2018-Apr-17 12:01N 59°35' E 023°04'1019.1
2018-Apr-17 11:31N 59°38' E 023°22'1019.3
2018-Apr-17 11:00N 59°40' E 023°41'1019.1
2018-Apr-17 10:31N 59°43' E 023°59'1019.3
2018-Apr-17 09:59N 59°46' E 024°18'919.0
2018-Apr-17 09:31N 59°49' E 024°35'919.0
2018-Apr-17 09:01N 59°54' E 024°51'918.5
2018-Apr-17 08:30N 59°60' E 025°05'1019.0
2018-Apr-17 08:01N 60°09' E 025°12'4 7.9
2018-Apr-17 07:30N 60°13' E 025°12'0 0.0
2018-Apr-17 06:55N 60°13' E 025°12'0 0.0
2018-Apr-17 06:30N 60°13' E 025°12'0 0.0
2018-Apr-17 05:59N 60°13' E 025°12'0 0.0
2018-Apr-17 05:30N 60°13' E 025°12'0 0.0
2018-Apr-17 05:00N 60°13' E 025°12'0 0.0
2018-Apr-17 04:30N 60°13' E 025°12'0 0.0
2018-Apr-17 04:00N 60°13' E 025°12'0 0.0
2018-Apr-17 03:30N 60°13' E 025°12'0 0.0
2018-Apr-17 03:00N 60°13' E 025°12'0 0.0
2018-Apr-17 02:30N 60°13' E 025°12'0 0.0
2018-Apr-17 02:00N 60°13' E 025°12'0 0.0
2018-Apr-17 01:26N 60°13' E 025°12'0 0.0
2018-Apr-17 01:00N 60°13' E 025°12'0 0.0
2018-Apr-17 00:29N 60°13' E 025°12'0 0.0
2018-Apr-17 00:00N 60°13' E 025°12'0 0.0
2018-Apr-16 23:30N 60°13' E 025°12'0 0.0
2018-Apr-16 23:00N 60°13' E 025°12'0 0.0
2018-Apr-16 22:30N 60°13' E 025°12'0 0.0
2018-Apr-16 22:00N 60°13' E 025°12'0 0.0
2018-Apr-16 21:30N 60°13' E 025°11'0 0.0
2018-Apr-16 21:00N 60°13' E 025°12'0 0.0
2018-Apr-16 20:30N 60°13' E 025°12'2 3.2
2018-Apr-16 20:00N 60°11' E 025°13'815.2
2018-Apr-16 19:30N 60°04' E 025°09'918.8
2018-Apr-16 19:00N 59°56' E 025°01'918.7
2018-Apr-16 18:31N 59°48' E 024°50'1019.0
2018-Apr-16 18:00N 59°45' E 024°33'1019.0
2018-Apr-16 17:30N 59°42' E 024°15'918.8
2018-Apr-16 17:00N 59°39' E 023°57'1019.0
2018-Apr-16 16:30N 59°36' E 023°39'1019.2
2018-Apr-16 16:00N 59°33' E 023°21'1219.2
2018-Apr-16 15:24N 59°30' E 022°59'26618.6
2018-Apr-16 01:05N 56°16' E 017°15'218.8
2018-Apr-16 00:58N 56°14' E 017°12'918.7
2018-Apr-16 00:30N 56°09' E 016°60'918.8
2018-Apr-16 00:00N 56°04' E 016°46'1018.8
2018-Apr-15 23:29N 55°59' E 016°30'918.7
2018-Apr-15 23:00N 55°54' E 016°17'918.8
2018-Apr-15 22:30N 55°50' E 016°03'918.8
2018-Apr-15 22:00N 55°45' E 015°48'918.9
2018-Apr-15 21:31N 55°41' E 015°33'918.9
2018-Apr-15 21:00N 55°36' E 015°18'918.9
2018-Apr-15 20:30N 55°32' E 015°04'918.9
2018-Apr-15 20:00N 55°27' E 014°49'918.4
2018-Apr-15 19:31N 55°22' E 014°36'1018.6
2018-Apr-15 18:57N 55°13' E 014°25'818.8
2018-Apr-15 18:30N 55°07' E 014°16'918.3
2018-Apr-15 18:01N 55°01' E 014°04'1219.1
2018-Apr-15 17:22N 54°57' E 013°44'1019.1
2018-Apr-15 16:50N 54°53' E 013°27'1318.6
2018-Apr-15 16:08N 54°49' E 013°05'418.5
2018-Apr-15 15:55N 54°48' E 012°59'918.3
2018-Apr-15 15:26N 54°45' E 012°45'818.2
2018-Apr-15 15:00N 54°41' E 012°33'1417.2
2018-Apr-15 14:13N 54°31' E 012°16'418.6
2018-Apr-15 14:00N 54°27' E 012°14'2516.9
2018-Apr-15 12:31N 54°29' E 011°31'018.8
2018-Apr-15 12:30N 54°29' E 011°30'918.6
2018-Apr-15 12:00N 54°33' E 011°16'917.6
2018-Apr-15 11:31N 54°35' E 011°02'918.4
2018-Apr-15 11:00N 54°34' E 010°46'918.3
2018-Apr-15 10:30N 54°32' E 010°31'916.3
2018-Apr-15 09:59N 54°29' E 010°17'11 5.6
2018-Apr-15 08:02N 54°22' E 010°03'3 6.8
2018-Apr-15 07:38N 54°21' E 009°58'3 8.2
2018-Apr-15 07:18N 54°21' E 009°54'2 8.4
2018-Apr-15 07:00N 54°22' E 009°50'4 7.1
2018-Apr-15 06:30N 54°20' E 009°44'3 6.6
2018-Apr-15 06:00N 54°18' E 009°41'3 5.8
2018-Apr-15 05:30N 54°15' E 009°37'3 6.8
2018-Apr-15 05:00N 54°12' E 009°34'4 8.2
2018-Apr-15 04:30N 54°11' E 009°28'4 8.0
2018-Apr-15 04:00N 54°09' E 009°22'2 3.2
2018-Apr-15 03:30N 54°08' E 009°20'4 8.2
2018-Apr-15 03:00N 54°04' E 009°19'1 2.8
2018-Apr-15 02:30N 54°02' E 009°18'4 7.5
2018-Apr-15 01:58N 53°59' E 009°16'3 6.6
2018-Apr-15 01:29N 53°56' E 009°13'3 7.0
2018-Apr-15 01:00N 53°54' E 009°09'0 0.0
2018-Apr-15 00:31N 53°54' E 009°09'2 3.7
2018-Apr-15 00:00N 53°53' E 009°06'0 0.2
2018-Apr-14 23:31N 53°53' E 009°06'0 0.1
2018-Apr-14 23:00N 53°53' E 009°06'1 2.6
2018-Apr-14 22:31N 53°52' E 009°04'714.2
2018-Apr-14 22:00N 53°50' E 008°53'713.4
2018-Apr-14 21:30N 53°53' E 008°42'918.2
2018-Apr-14 21:00N 53°58' E 008°29'1019.7
2018-Apr-14 20:30N 53°59' E 008°13'917.8
2018-Apr-14 20:00N 53°58' E 007°58'1020.1
2018-Apr-14 19:30N 53°56' E 007°41'5119.8
2018-Apr-14 16:55N 53°44' E 006°17'2319.2
2018-Apr-14 15:44N 53°37' E 005°41'819.1
2018-Apr-14 15:21N 53°35' E 005°29'619.0
2018-Apr-14 15:00N 53°33' E 005°18'918.7
2018-Apr-14 14:31N 53°29' E 005°04'918.7
2018-Apr-14 14:00N 53°25' E 004°49'917.9
2018-Apr-14 13:29N 53°19' E 004°38'918.6
2018-Apr-14 13:00N 53°11' E 004°32'918.5
2018-Apr-14 12:30N 53°03' E 004°25'918.2
2018-Apr-14 12:00N 52°54' E 004°18'1018.2
2018-Apr-14 11:28N 52°46' E 004°10'918.0
2018-Apr-14 10:59N 52°39' E 004°02'917.8
2018-Apr-14 10:30N 52°31' E 003°55'1017.9
2018-Apr-14 09:56N 52°21' E 003°53'817.6
2018-Apr-14 09:30N 52°14' E 003°53'917.6
2018-Apr-14 09:01N 52°05' E 003°56'917.6
2018-Apr-14 08:30N 51°59' E 004°06'612.2
2018-Apr-14 08:01N 51°55' E 004°14'5 9.9
2018-Apr-14 07:30N 51°54' E 004°22'2 4.5
2018-Apr-14 07:00N 51°53' E 004°25'0 0.0
2018-Apr-14 06:30N 51°53' E 004°25'0 0.0
2018-Apr-14 06:00N 51°53' E 004°25'0 0.0
2018-Apr-14 05:30N 51°53' E 004°25'0 0.0
2018-Apr-14 05:00N 51°53' E 004°25'0 0.0
2018-Apr-14 04:30N 51°53' E 004°25'0 0.0
2018-Apr-14 04:00N 51°53' E 004°25'0 0.0
2018-Apr-14 03:30N 51°53' E 004°25'0 0.0
2018-Apr-14 03:00N 51°53' E 004°25'0 0.0
2018-Apr-14 02:30N 51°53' E 004°25'0 0.0
2018-Apr-14 02:00N 51°53' E 004°25'0 0.0
2018-Apr-14 01:30N 51°53' E 004°25'0 0.0
2018-Apr-14 01:00N 51°53' E 004°25'0 0.0
2018-Apr-14 00:30N 51°53' E 004°25'0 0.0
2018-Apr-14 00:00N 51°53' E 004°25'0 0.0
2018-Apr-13 23:30N 51°53' E 004°25'0 0.0
2018-Apr-13 23:00N 51°53' E 004°25'0 0.0
2018-Apr-13 22:30N 51°53' E 004°25'0 0.0
2018-Apr-13 22:00N 51°53' E 004°25'0 0.0
2018-Apr-13 21:30N 51°53' E 004°25'0 0.0
2018-Apr-13 21:00N 51°53' E 004°25'0 0.0
2018-Apr-13 20:30N 51°53' E 004°25'0 0.0
2018-Apr-13 20:00N 51°53' E 004°25'0 0.0
2018-Apr-13 19:30N 51°53' E 004°25'0 0.0
2018-Apr-13 19:00N 51°53' E 004°25'0 0.0
2018-Apr-13 18:30N 51°53' E 004°25'0 0.0
2018-Apr-13 18:00N 51°53' E 004°25'0 0.0
2018-Apr-13 17:30N 51°53' E 004°25'0 0.0
2018-Apr-13 17:00N 51°53' E 004°25'0 0.0
2018-Apr-13 16:30N 51°53' E 004°25'0 0.0
2018-Apr-13 16:00N 51°53' E 004°25'0 0.0
2018-Apr-13 15:30N 51°53' E 004°25'0 0.0
2018-Apr-13 15:00N 51°53' E 004°25'0 0.0
2018-Apr-13 14:30N 51°53' E 004°25'0 0.0
2018-Apr-13 14:00N 51°53' E 004°25'0 0.0
2018-Apr-13 13:30N 51°53' E 004°25'0 0.0
2018-Apr-13 13:00N 51°53' E 004°25'1 1.4
2018-Apr-13 12:30N 51°53' E 004°24'4 7.4
2018-Apr-13 12:00N 51°54' E 004°18'510.4
2018-Apr-13 11:30N 51°57' E 004°11'612.2
2018-Apr-13 11:00N 51°59' E 004°03'1817.7
2018-Apr-13 10:00N 52°05' E 003°35'6219.1
2018-Apr-13 06:45N 52°40' E 002°11'520.4
2018-Apr-13 06:31N 52°43' E 002°04'1121.1
2018-Apr-13 06:00N 52°49' E 001°50'1121.2
2018-Apr-13 05:30N 52°56' E 001°36'1020.9
2018-Apr-13 05:00N 53°04' E 001°25'1020.4
2018-Apr-13 04:30N 53°12' E 001°16'5519.9
2018-Apr-13 01:43N 53°57' E 000°22'419.6
2018-Apr-13 01:30N 54°00' E 000°17'1019.6
2018-Apr-13 01:00N 54°08' E 000°06'1019.8
2018-Apr-13 00:30N 54°15' W 000°05'1019.3
2018-Apr-13 00:01N 54°22' W 000°16'1019.1
2018-Apr-12 23:31N 54°30' W 000°27'25 1.8
2018-Apr-12 09:13N 54°41' W 001°06'419.2
2018-Apr-12 09:00N 54°44' W 000°59'1019.4
2018-Apr-12 08:30N 54°49' W 000°45'1419.5
2018-Apr-12 07:49N 54°54' W 000°24'40118.7
2018-Apr-11 10:23N 57°46' E 010°29'719.6
2018-Apr-11 10:00N 57°47' E 010°43'918.3
2018-Apr-11 09:30N 57°43' E 010°57'1019.3
2018-Apr-11 09:00N 57°36' E 011°11'1019.2
2018-Apr-11 08:30N 57°30' E 011°23'918.8
2018-Apr-11 08:00N 57°21' E 011°32'1019.4
2018-Apr-11 07:30N 57°12' E 011°38'1019.2
2018-Apr-11 06:59N 57°03' E 011°44'918.9
2018-Apr-11 06:30N 56°54' E 011°49'918.7
2018-Apr-11 06:00N 56°45' E 011°53'918.4
2018-Apr-11 05:30N 56°37' E 011°45'917.8
2018-Apr-11 04:59N 56°29' E 011°36'1417.7
2018-Apr-11 04:12N 56°17' E 011°24'517.8
2018-Apr-11 03:56N 56°12' E 011°20'5317.0
2018-Apr-11 00:50N 55°21' E 011°03'717.4
2018-Apr-11 00:24N 55°14' E 011°06'717.4
2018-Apr-11 00:00N 55°07' E 011°03'917.0
2018-Apr-10 23:30N 54°59' E 011°00'816.4
2018-Apr-10 23:00N 54°52' E 010°53'917.1
2018-Apr-10 22:30N 54°43' E 010°53'816.9
2018-Apr-10 22:00N 54°38' E 011°05'1019.4
2018-Apr-10 21:30N 54°34' E 011°20'1020.2
2018-Apr-10 21:00N 54°29' E 011°35'1019.2
2018-Apr-10 20:30N 54°26' E 011°51'918.9
2018-Apr-10 20:00N 54°26' E 012°07'  

Dump ship's entire track history